sensor_id;sensor_type;location;lat;lon;timestamp;P1;durP1;ratioP1;P2;durP2;ratioP2
72517;SDS011;60540;51.178;6.738;2023-12-20T00:00:25;5.63;;;2.35;;
72517;SDS011;60540;51.178;6.738;2023-12-20T00:03:11;6.13;;;2.50;;
72517;SDS011;60540;51.178;6.738;2023-12-20T00:05:36;5.95;;;2.38;;
72517;SDS011;60540;51.178;6.738;2023-12-20T00:08:06;4.70;;;1.88;;
72517;SDS011;60540;51.178;6.738;2023-12-20T00:10:32;4.15;;;2.05;;
72517;SDS011;60540;51.178;6.738;2023-12-20T00:12:57;5.30;;;2.20;;
72517;SDS011;60540;51.178;6.738;2023-12-20T00:15:23;6.13;;;2.10;;
72517;SDS011;60540;51.178;6.738;2023-12-20T00:17:49;5.32;;;2.03;;
72517;SDS011;60540;51.178;6.738;2023-12-20T00:20:15;5.65;;;1.90;;
72517;SDS011;60540;51.178;6.738;2023-12-20T00:22:40;3.80;;;1.60;;
72517;SDS011;60540;51.178;6.738;2023-12-20T00:25:06;6.25;;;2.47;;
72517;SDS011;60540;51.178;6.738;2023-12-20T00:27:32;3.83;;;1.85;;
72517;SDS011;60540;51.178;6.738;2023-12-20T00:29:58;5.40;;;2.50;;
72517;SDS011;60540;51.178;6.738;2023-12-20T00:32:24;6.47;;;2.15;;
72517;SDS011;60540;51.178;6.738;2023-12-20T00:34:50;4.55;;;2.38;;
72517;SDS011;60540;51.178;6.738;2023-12-20T00:37:15;7.55;;;2.90;;
72517;SDS011;60540;51.178;6.738;2023-12-20T00:39:42;6.82;;;3.10;;
72517;SDS011;60540;51.178;6.738;2023-12-20T00:42:07;6.55;;;2.95;;
72517;SDS011;60540;51.178;6.738;2023-12-20T00:44:33;6.15;;;3.38;;
72517;SDS011;60540;51.178;6.738;2023-12-20T00:46:59;10.15;;;3.35;;
72517;SDS011;60540;51.178;6.738;2023-12-20T00:49:25;7.35;;;2.80;;
72517;SDS011;60540;51.178;6.738;2023-12-20T00:51:50;6.07;;;2.80;;
72517;SDS011;60540;51.178;6.738;2023-12-20T00:54:18;6.63;;;3.17;;
72517;SDS011;60540;51.178;6.738;2023-12-20T00:56:44;8.60;;;3.10;;
72517;SDS011;60540;51.178;6.738;2023-12-20T00:59:09;6.70;;;3.15;;
72517;SDS011;60540;51.178;6.738;2023-12-20T01:01:36;7.88;;;3.38;;
72517;SDS011;60540;51.178;6.738;2023-12-20T01:04:01;8.00;;;3.40;;
72517;SDS011;60540;51.178;6.738;2023-12-20T01:06:27;8.52;;;2.83;;
72517;SDS011;60540;51.178;6.738;2023-12-20T01:08:53;7.55;;;2.88;;
72517;SDS011;60540;51.178;6.738;2023-12-20T01:11:19;7.78;;;3.45;;
72517;SDS011;60540;51.178;6.738;2023-12-20T01:13:45;8.02;;;3.28;;
72517;SDS011;60540;51.178;6.738;2023-12-20T01:16:11;8.68;;;3.33;;
72517;SDS011;60540;51.178;6.738;2023-12-20T01:18:37;11.40;;;4.10;;
72517;SDS011;60540;51.178;6.738;2023-12-20T01:21:04;10.73;;;4.25;;
72517;SDS011;60540;51.178;6.738;2023-12-20T01:23:30;13.35;;;5.32;;
72517;SDS011;60540;51.178;6.738;2023-12-20T01:25:57;11.05;;;5.35;;
72517;SDS011;60540;51.178;6.738;2023-12-20T01:28:25;13.95;;;6.65;;
72517;SDS011;60540;51.178;6.738;2023-12-20T01:30:51;14.35;;;6.68;;
72517;SDS011;60540;51.178;6.738;2023-12-20T01:33:18;14.80;;;6.28;;
72517;SDS011;60540;51.178;6.738;2023-12-20T01:35:43;14.10;;;6.68;;
72517;SDS011;60540;51.178;6.738;2023-12-20T01:38:09;14.20;;;5.78;;
72517;SDS011;60540;51.178;6.738;2023-12-20T01:40:35;13.63;;;6.05;;
72517;SDS011;60540;51.178;6.738;2023-12-20T01:43:01;15.20;;;6.38;;
72517;SDS011;60540;51.178;6.738;2023-12-20T01:45:28;13.18;;;5.82;;
72517;SDS011;60540;51.178;6.738;2023-12-20T01:47:57;13.20;;;6.10;;
72517;SDS011;60540;51.178;6.738;2023-12-20T01:50:24;12.25;;;6.20;;
72517;SDS011;60540;51.178;6.738;2023-12-20T01:52:50;12.50;;;5.57;;
72517;SDS011;60540;51.178;6.738;2023-12-20T01:57:45;10.43;;;4.80;;
72517;SDS011;60540;51.178;6.738;2023-12-20T02:00:12;10.18;;;4.80;;
72517;SDS011;60540;51.178;6.738;2023-12-20T02:02:40;15.88;;;5.40;;
72517;SDS011;60540;51.178;6.738;2023-12-20T02:05:09;9.73;;;4.43;;
72517;SDS011;60540;51.178;6.738;2023-12-20T02:07:35;13.43;;;4.80;;
72517;SDS011;60540;51.178;6.738;2023-12-20T02:10:01;12.85;;;5.22;;
72517;SDS011;60540;51.178;6.738;2023-12-20T02:12:27;10.32;;;4.82;;
72517;SDS011;60540;51.178;6.738;2023-12-20T02:14:53;9.57;;;4.20;;
72517;SDS011;60540;51.178;6.738;2023-12-20T02:17:19;14.30;;;5.43;;
72517;SDS011;60540;51.178;6.738;2023-12-20T02:19:45;10.65;;;4.70;;
72517;SDS011;60540;51.178;6.738;2023-12-20T02:22:11;8.70;;;4.05;;
72517;SDS011;60540;51.178;6.738;2023-12-20T02:24:37;10.88;;;4.30;;
72517;SDS011;60540;51.178;6.738;2023-12-20T02:27:03;9.93;;;3.58;;
72517;SDS011;60540;51.178;6.738;2023-12-20T02:29:30;8.27;;;3.60;;
72517;SDS011;60540;51.178;6.738;2023-12-20T02:31:56;8.75;;;3.65;;
72517;SDS011;60540;51.178;6.738;2023-12-20T02:34:22;9.57;;;3.80;;
72517;SDS011;60540;51.178;6.738;2023-12-20T02:36:48;8.07;;;2.92;;
72517;SDS011;60540;51.178;6.738;2023-12-20T02:39:13;9.60;;;2.90;;
72517;SDS011;60540;51.178;6.738;2023-12-20T02:41:39;7.18;;;2.50;;
72517;SDS011;60540;51.178;6.738;2023-12-20T02:44:05;5.35;;;2.10;;
72517;SDS011;60540;51.178;6.738;2023-12-20T02:46:31;7.10;;;2.53;;
72517;SDS011;60540;51.178;6.738;2023-12-20T02:48:56;5.43;;;2.22;;
72517;SDS011;60540;51.178;6.738;2023-12-20T02:51:22;8.98;;;2.42;;
72517;SDS011;60540;51.178;6.738;2023-12-20T02:53:47;6.75;;;2.50;;
72517;SDS011;60540;51.178;6.738;2023-12-20T02:56:13;9.02;;;2.60;;
72517;SDS011;60540;51.178;6.738;2023-12-20T02:58:39;6.60;;;2.45;;
72517;SDS011;60540;51.178;6.738;2023-12-20T03:01:05;8.65;;;2.33;;
72517;SDS011;60540;51.178;6.738;2023-12-20T03:03:31;7.15;;;2.63;;
72517;SDS011;60540;51.178;6.738;2023-12-20T03:05:57;10.30;;;2.67;;
72517;SDS011;60540;51.178;6.738;2023-12-20T03:08:23;6.85;;;1.85;;
72517;SDS011;60540;51.178;6.738;2023-12-20T03:10:48;5.85;;;1.60;;
72517;SDS011;60540;51.178;6.738;2023-12-20T03:13:14;8.00;;;2.55;;
72517;SDS011;60540;51.178;6.738;2023-12-20T03:15:40;5.43;;;1.73;;
72517;SDS011;60540;51.178;6.738;2023-12-20T03:18:06;12.35;;;2.10;;
72517;SDS011;60540;51.178;6.738;2023-12-20T03:20:31;8.30;;;2.33;;
72517;SDS011;60540;51.178;6.738;2023-12-20T03:23:02;8.25;;;2.53;;
72517;SDS011;60540;51.178;6.738;2023-12-20T03:25:29;6.55;;;1.92;;
72517;SDS011;60540;51.178;6.738;2023-12-20T03:27:55;5.95;;;2.33;;
72517;SDS011;60540;51.178;6.738;2023-12-20T03:30:21;5.22;;;1.88;;
72517;SDS011;60540;51.178;6.738;2023-12-20T03:32:46;7.65;;;1.83;;
72517;SDS011;60540;51.178;6.738;2023-12-20T03:35:12;7.80;;;1.92;;
72517;SDS011;60540;51.178;6.738;2023-12-20T03:37:38;7.93;;;2.13;;
72517;SDS011;60540;51.178;6.738;2023-12-20T03:40:04;9.32;;;2.20;;
72517;SDS011;60540;51.178;6.738;2023-12-20T03:42:30;8.60;;;3.08;;
72517;SDS011;60540;51.178;6.738;2023-12-20T03:44:56;3.63;;;1.40;;
72517;SDS011;60540;51.178;6.738;2023-12-20T03:47:22;6.28;;;2.13;;
72517;SDS011;60540;51.178;6.738;2023-12-20T03:49:47;6.53;;;1.85;;
72517;SDS011;60540;51.178;6.738;2023-12-20T03:52:13;6.97;;;2.25;;
72517;SDS011;60540;51.178;6.738;2023-12-20T03:54:39;9.02;;;2.20;;
72517;SDS011;60540;51.178;6.738;2023-12-20T03:57:06;9.07;;;2.70;;
72517;SDS011;60540;51.178;6.738;2023-12-20T03:59:36;10.90;;;2.42;;
72517;SDS011;60540;51.178;6.738;2023-12-20T04:02:02;8.05;;;2.15;;
72517;SDS011;60540;51.178;6.738;2023-12-20T04:04:27;5.70;;;1.80;;
72517;SDS011;60540;51.178;6.738;2023-12-20T04:06:53;6.50;;;2.13;;
72517;SDS011;60540;51.178;6.738;2023-12-20T04:09:19;9.73;;;2.63;;
72517;SDS011;60540;51.178;6.738;2023-12-20T04:11:44;10.80;;;2.60;;
72517;SDS011;60540;51.178;6.738;2023-12-20T04:14:10;11.10;;;2.63;;
72517;SDS011;60540;51.178;6.738;2023-12-20T04:16:36;11.43;;;2.90;;
72517;SDS011;60540;51.178;6.738;2023-12-20T04:19:02;7.68;;;2.03;;
72517;SDS011;60540;51.178;6.738;2023-12-20T04:21:27;9.13;;;2.22;;
72517;SDS011;60540;51.178;6.738;2023-12-20T04:23:53;7.75;;;2.10;;
72517;SDS011;60540;51.178;6.738;2023-12-20T04:26:19;6.50;;;2.03;;
72517;SDS011;60540;51.178;6.738;2023-12-20T04:28:45;9.30;;;3.42;;
72517;SDS011;60540;51.178;6.738;2023-12-20T04:31:10;13.48;;;3.50;;
72517;SDS011;60540;51.178;6.738;2023-12-20T04:33:36;7.50;;;2.67;;
72517;SDS011;60540;51.178;6.738;2023-12-20T04:36:02;6.72;;;2.83;;
72517;SDS011;60540;51.178;6.738;2023-12-20T04:38:27;11.05;;;3.05;;
72517;SDS011;60540;51.178;6.738;2023-12-20T04:40:53;7.90;;;2.90;;
72517;SDS011;60540;51.178;6.738;2023-12-20T04:43:19;9.25;;;3.05;;
72517;SDS011;60540;51.178;6.738;2023-12-20T04:45:44;7.75;;;2.67;;
72517;SDS011;60540;51.178;6.738;2023-12-20T04:48:10;11.60;;;2.78;;
72517;SDS011;60540;51.178;6.738;2023-12-20T04:50:36;9.48;;;2.65;;
72517;SDS011;60540;51.178;6.738;2023-12-20T04:53:02;10.23;;;2.83;;
72517;SDS011;60540;51.178;6.738;2023-12-20T04:55:27;12.55;;;3.10;;
72517;SDS011;60540;51.178;6.738;2023-12-20T04:57:53;7.18;;;3.00;;
72517;SDS011;60540;51.178;6.738;2023-12-20T05:00:20;8.27;;;2.55;;
72517;SDS011;60540;51.178;6.738;2023-12-20T05:02:45;9.32;;;3.28;;
72517;SDS011;60540;51.178;6.738;2023-12-20T05:05:11;10.40;;;2.80;;
72517;SDS011;60540;51.178;6.738;2023-12-20T05:07:38;8.45;;;2.45;;
72517;SDS011;60540;51.178;6.738;2023-12-20T05:10:03;6.80;;;3.00;;
72517;SDS011;60540;51.178;6.738;2023-12-20T05:12:34;9.90;;;3.00;;
72517;SDS011;60540;51.178;6.738;2023-12-20T05:15:00;7.70;;;2.17;;
72517;SDS011;60540;51.178;6.738;2023-12-20T05:17:26;10.05;;;3.22;;
72517;SDS011;60540;51.178;6.738;2023-12-20T05:19:51;10.00;;;3.30;;
72517;SDS011;60540;51.178;6.738;2023-12-20T05:22:18;9.32;;;2.75;;
72517;SDS011;60540;51.178;6.738;2023-12-20T05:24:44;8.60;;;2.72;;
72517;SDS011;60540;51.178;6.738;2023-12-20T05:27:10;8.68;;;2.45;;
72517;SDS011;60540;51.178;6.738;2023-12-20T05:29:36;10.48;;;2.88;;
72517;SDS011;60540;51.178;6.738;2023-12-20T05:32:03;8.07;;;2.20;;
72517;SDS011;60540;51.178;6.738;2023-12-20T05:34:31;7.88;;;3.63;;
72517;SDS011;60540;51.178;6.738;2023-12-20T05:36:57;9.10;;;2.70;;
72517;SDS011;60540;51.178;6.738;2023-12-20T05:39:23;8.63;;;2.47;;
72517;SDS011;60540;51.178;6.738;2023-12-20T05:41:49;11.73;;;2.83;;
72517;SDS011;60540;51.178;6.738;2023-12-20T05:44:14;8.80;;;2.40;;
72517;SDS011;60540;51.178;6.738;2023-12-20T05:46:40;8.07;;;2.63;;
72517;SDS011;60540;51.178;6.738;2023-12-20T05:49:06;11.50;;;2.92;;
72517;SDS011;60540;51.178;6.738;2023-12-20T05:51:32;10.25;;;3.20;;
72517;SDS011;60540;51.178;6.738;2023-12-20T05:53:58;5.38;;;2.25;;
72517;SDS011;60540;51.178;6.738;2023-12-20T05:56:24;12.63;;;3.00;;
72517;SDS011;60540;51.178;6.738;2023-12-20T05:58:49;9.68;;;2.70;;
72517;SDS011;60540;51.178;6.738;2023-12-20T06:01:15;5.78;;;2.30;;
72517;SDS011;60540;51.178;6.738;2023-12-20T06:03:44;14.27;;;3.50;;
72517;SDS011;60540;51.178;6.738;2023-12-20T06:06:11;11.68;;;3.17;;
72517;SDS011;60540;51.178;6.738;2023-12-20T06:08:38;10.18;;;2.40;;
72517;SDS011;60540;51.178;6.738;2023-12-20T06:11:04;9.40;;;3.38;;
72517;SDS011;60540;51.178;6.738;2023-12-20T06:13:30;8.13;;;2.85;;
72517;SDS011;60540;51.178;6.738;2023-12-20T06:15:57;10.00;;;3.25;;
72517;SDS011;60540;51.178;6.738;2023-12-20T06:18:22;6.75;;;2.50;;
72517;SDS011;60540;51.178;6.738;2023-12-20T06:20:48;7.45;;;2.75;;
72517;SDS011;60540;51.178;6.738;2023-12-20T06:23:14;9.13;;;2.80;;
72517;SDS011;60540;51.178;6.738;2023-12-20T06:25:40;10.38;;;3.45;;
72517;SDS011;60540;51.178;6.738;2023-12-20T06:28:05;7.32;;;2.85;;
72517;SDS011;60540;51.178;6.738;2023-12-20T06:30:32;11.10;;;3.67;;
72517;SDS011;60540;51.178;6.738;2023-12-20T06:33:00;9.25;;;3.03;;
72517;SDS011;60540;51.178;6.738;2023-12-20T06:35:26;15.60;;;3.60;;
72517;SDS011;60540;51.178;6.738;2023-12-20T06:37:51;6.20;;;2.80;;
72517;SDS011;60540;51.178;6.738;2023-12-20T06:40:18;12.32;;;3.78;;
72517;SDS011;60540;51.178;6.738;2023-12-20T06:42:43;9.98;;;3.42;;
72517;SDS011;60540;51.178;6.738;2023-12-20T06:45:10;13.45;;;2.97;;
72517;SDS011;60540;51.178;6.738;2023-12-20T06:47:35;6.78;;;2.55;;
72517;SDS011;60540;51.178;6.738;2023-12-20T06:50:01;9.68;;;3.20;;
72517;SDS011;60540;51.178;6.738;2023-12-20T06:52:27;7.93;;;3.30;;
72517;SDS011;60540;51.178;6.738;2023-12-20T06:54:52;7.60;;;3.25;;
72517;SDS011;60540;51.178;6.738;2023-12-20T06:57:18;12.00;;;3.00;;
72517;SDS011;60540;51.178;6.738;2023-12-20T06:59:45;10.70;;;3.03;;
72517;SDS011;60540;51.178;6.738;2023-12-20T07:02:11;10.75;;;3.53;;
72517;SDS011;60540;51.178;6.738;2023-12-20T07:04:40;8.48;;;2.70;;
72517;SDS011;60540;51.178;6.738;2023-12-20T07:07:06;10.80;;;3.17;;
72517;SDS011;60540;51.178;6.738;2023-12-20T07:09:32;9.45;;;2.45;;
72517;SDS011;60540;51.178;6.738;2023-12-20T07:11:58;13.70;;;3.20;;
72517;SDS011;60540;51.178;6.738;2023-12-20T07:14:24;7.90;;;2.83;;
72517;SDS011;60540;51.178;6.738;2023-12-20T07:16:50;13.13;;;3.20;;
72517;SDS011;60540;51.178;6.738;2023-12-20T07:19:16;12.52;;;3.35;;
72517;SDS011;60540;51.178;6.738;2023-12-20T07:21:41;11.88;;;3.13;;
72517;SDS011;60540;51.178;6.738;2023-12-20T07:24:07;9.35;;;3.78;;
72517;SDS011;60540;51.178;6.738;2023-12-20T07:26:33;6.50;;;2.40;;
72517;SDS011;60540;51.178;6.738;2023-12-20T07:28:59;12.50;;;2.90;;
72517;SDS011;60540;51.178;6.738;2023-12-20T07:31:25;11.60;;;2.95;;
72517;SDS011;60540;51.178;6.738;2023-12-20T07:33:51;12.27;;;3.72;;
72517;SDS011;60540;51.178;6.738;2023-12-20T07:36:17;8.95;;;2.88;;
72517;SDS011;60540;51.178;6.738;2023-12-20T07:38:43;8.13;;;3.15;;
72517;SDS011;60540;51.178;6.738;2023-12-20T07:41:09;11.98;;;3.28;;
72517;SDS011;60540;51.178;6.738;2023-12-20T07:43:36;10.27;;;3.33;;
72517;SDS011;60540;51.178;6.738;2023-12-20T07:46:08;12.27;;;3.38;;
72517;SDS011;60540;51.178;6.738;2023-12-20T07:48:34;11.15;;;3.15;;
72517;SDS011;60540;51.178;6.738;2023-12-20T07:51:00;14.13;;;3.63;;
72517;SDS011;60540;51.178;6.738;2023-12-20T07:53:27;9.88;;;4.20;;
72517;SDS011;60540;51.178;6.738;2023-12-20T07:55:52;10.05;;;3.55;;
72517;SDS011;60540;51.178;6.738;2023-12-20T07:58:18;12.70;;;3.95;;
72517;SDS011;60540;51.178;6.738;2023-12-20T08:00:44;12.95;;;4.13;;
72517;SDS011;60540;51.178;6.738;2023-12-20T08:03:10;13.20;;;3.83;;
72517;SDS011;60540;51.178;6.738;2023-12-20T08:05:36;12.43;;;3.65;;
72517;SDS011;60540;51.178;6.738;2023-12-20T08:08:04;11.55;;;4.00;;
72517;SDS011;60540;51.178;6.738;2023-12-20T08:10:30;11.85;;;3.13;;
72517;SDS011;60540;51.178;6.738;2023-12-20T08:12:56;9.18;;;3.05;;
72517;SDS011;60540;51.178;6.738;2023-12-20T08:15:21;7.20;;;2.85;;
72517;SDS011;60540;51.178;6.738;2023-12-20T08:17:47;7.13;;;2.90;;
72517;SDS011;60540;51.178;6.738;2023-12-20T08:20:13;7.00;;;2.75;;
72517;SDS011;60540;51.178;6.738;2023-12-20T08:22:39;11.20;;;2.90;;
72517;SDS011;60540;51.178;6.738;2023-12-20T08:25:04;14.50;;;3.17;;
72517;SDS011;60540;51.178;6.738;2023-12-20T08:27:30;9.82;;;2.92;;
72517;SDS011;60540;51.178;6.738;2023-12-20T08:29:57;6.60;;;2.67;;
72517;SDS011;60540;51.178;6.738;2023-12-20T08:32:26;11.77;;;3.35;;
72517;SDS011;60540;51.178;6.738;2023-12-20T08:34:52;8.27;;;2.53;;
72517;SDS011;60540;51.178;6.738;2023-12-20T08:37:17;12.02;;;3.17;;
72517;SDS011;60540;51.178;6.738;2023-12-20T08:39:43;10.18;;;3.28;;
72517;SDS011;60540;51.178;6.738;2023-12-20T08:42:09;13.00;;;3.20;;
72517;SDS011;60540;51.178;6.738;2023-12-20T08:44:35;14.45;;;3.20;;
72517;SDS011;60540;51.178;6.738;2023-12-20T08:47:00;7.47;;;2.88;;
72517;SDS011;60540;51.178;6.738;2023-12-20T08:49:26;10.20;;;2.88;;
72517;SDS011;60540;51.178;6.738;2023-12-20T08:51:53;12.73;;;3.55;;
72517;SDS011;60540;51.178;6.738;2023-12-20T08:54:19;9.35;;;3.28;;
72517;SDS011;60540;51.178;6.738;2023-12-20T08:56:45;9.60;;;2.75;;
72517;SDS011;60540;51.178;6.738;2023-12-20T08:59:11;8.93;;;2.80;;
72517;SDS011;60540;51.178;6.738;2023-12-20T09:01:37;9.68;;;3.03;;
72517;SDS011;60540;51.178;6.738;2023-12-20T09:04:03;7.28;;;2.60;;
72517;SDS011;60540;51.178;6.738;2023-12-20T09:06:29;7.82;;;2.67;;
72517;SDS011;60540;51.178;6.738;2023-12-20T09:08:54;7.80;;;3.40;;
72517;SDS011;60540;51.178;6.738;2023-12-20T09:11:20;8.00;;;3.40;;
72517;SDS011;60540;51.178;6.738;2023-12-20T09:13:46;8.15;;;2.30;;
72517;SDS011;60540;51.178;6.738;2023-12-20T09:16:11;5.95;;;2.35;;
72517;SDS011;60540;51.178;6.738;2023-12-20T09:18:38;9.38;;;2.67;;
72517;SDS011;60540;51.178;6.738;2023-12-20T09:21:04;9.73;;;2.13;;
72517;SDS011;60540;51.178;6.738;2023-12-20T09:23:29;7.78;;;2.58;;
72517;SDS011;60540;51.178;6.738;2023-12-20T09:25:55;11.80;;;3.15;;
72517;SDS011;60540;51.178;6.738;2023-12-20T09:28:21;9.90;;;2.35;;
72517;SDS011;60540;51.178;6.738;2023-12-20T09:30:47;11.25;;;2.60;;
72517;SDS011;60540;51.178;6.738;2023-12-20T09:33:14;7.57;;;2.10;;
72517;SDS011;60540;51.178;6.738;2023-12-20T09:35:40;7.68;;;2.03;;
72517;SDS011;60540;51.178;6.738;2023-12-20T09:38:05;5.88;;;1.98;;
72517;SDS011;60540;51.178;6.738;2023-12-20T09:40:32;7.65;;;2.13;;
72517;SDS011;60540;51.178;6.738;2023-12-20T09:43:19;7.10;;;1.90;;
72517;SDS011;60540;51.178;6.738;2023-12-20T09:45:46;8.48;;;2.80;;
72517;SDS011;60540;51.178;6.738;2023-12-20T09:48:13;6.00;;;2.00;;
72517;SDS011;60540;51.178;6.738;2023-12-20T09:50:42;9.68;;;2.72;;
72517;SDS011;60540;51.178;6.738;2023-12-20T09:53:07;8.65;;;3.33;;
72517;SDS011;60540;51.178;6.738;2023-12-20T09:58:01;6.43;;;2.30;;
72517;SDS011;60540;51.178;6.738;2023-12-20T10:00:27;6.53;;;2.05;;
72517;SDS011;60540;51.178;6.738;2023-12-20T10:02:56;5.72;;;2.22;;
72517;SDS011;60540;51.178;6.738;2023-12-20T10:05:26;11.88;;;3.10;;
72517;SDS011;60540;51.178;6.738;2023-12-20T10:08:01;15.88;;;2.60;;
72517;SDS011;60540;51.178;6.738;2023-12-20T10:10:27;6.38;;;2.00;;
72517;SDS011;60540;51.178;6.738;2023-12-20T10:13:09;10.13;;;2.15;;
72517;SDS011;60540;51.178;6.738;2023-12-20T10:15:36;9.07;;;2.25;;
72517;SDS011;60540;51.178;6.738;2023-12-20T10:18:02;6.28;;;1.73;;
72517;SDS011;60540;51.178;6.738;2023-12-20T10:20:29;5.57;;;2.28;;
72517;SDS011;60540;51.178;6.738;2023-12-20T10:22:56;9.35;;;2.08;;
72517;SDS011;60540;51.178;6.738;2023-12-20T10:25:23;5.50;;;2.45;;
72517;SDS011;60540;51.178;6.738;2023-12-20T10:27:49;11.88;;;2.28;;
72517;SDS011;60540;51.178;6.738;2023-12-20T10:30:16;7.35;;;2.53;;
72517;SDS011;60540;51.178;6.738;2023-12-20T10:32:42;6.05;;;1.98;;
72517;SDS011;60540;51.178;6.738;2023-12-20T10:35:08;8.52;;;2.70;;
72517;SDS011;60540;51.178;6.738;2023-12-20T10:37:37;7.72;;;2.95;;
72517;SDS011;60540;51.178;6.738;2023-12-20T10:40:04;7.13;;;2.25;;
72517;SDS011;60540;51.178;6.738;2023-12-20T10:42:31;5.35;;;2.83;;
72517;SDS011;60540;51.178;6.738;2023-12-20T10:47:24;12.48;;;2.80;;
72517;SDS011;60540;51.178;6.738;2023-12-20T10:49:52;5.25;;;1.83;;
72517;SDS011;60540;51.178;6.738;2023-12-20T10:52:17;7.65;;;2.00;;
72517;SDS011;60540;51.178;6.738;2023-12-20T10:54:44;8.80;;;2.42;;
72517;SDS011;60540;51.178;6.738;2023-12-20T10:57:10;7.40;;;2.17;;
72517;SDS011;60540;51.178;6.738;2023-12-20T10:59:37;4.60;;;2.05;;
72517;SDS011;60540;51.178;6.738;2023-12-20T11:02:04;7.10;;;2.25;;
72517;SDS011;60540;51.178;6.738;2023-12-20T11:04:53;8.65;;;2.42;;
72517;SDS011;60540;51.178;6.738;2023-12-20T11:07:23;7.90;;;2.30;;
72517;SDS011;60540;51.178;6.738;2023-12-20T11:10:18;4.97;;;2.15;;
72517;SDS011;60540;51.178;6.738;2023-12-20T11:12:52;9.10;;;2.38;;
72517;SDS011;60540;51.178;6.738;2023-12-20T11:15:19;11.32;;;2.40;;
72517;SDS011;60540;51.178;6.738;2023-12-20T11:17:45;10.82;;;2.50;;
72517;SDS011;60540;51.178;6.738;2023-12-20T11:20:14;13.38;;;2.47;;
72517;SDS011;60540;51.178;6.738;2023-12-20T11:22:40;6.25;;;2.47;;
72517;SDS011;60540;51.178;6.738;2023-12-20T11:25:18;6.32;;;2.30;;
72517;SDS011;60540;51.178;6.738;2023-12-20T11:27:44;6.82;;;3.03;;
72517;SDS011;60540;51.178;6.738;2023-12-20T11:30:10;8.75;;;2.65;;
72517;SDS011;60540;51.178;6.738;2023-12-20T11:32:36;5.38;;;2.28;;
72517;SDS011;60540;51.178;6.738;2023-12-20T11:37:37;6.80;;;2.25;;
72517;SDS011;60540;51.178;6.738;2023-12-20T11:40:05;7.38;;;1.85;;
72517;SDS011;60540;51.178;6.738;2023-12-20T11:42:37;9.95;;;2.38;;
72517;SDS011;60540;51.178;6.738;2023-12-20T11:45:04;8.07;;;2.15;;
72517;SDS011;60540;51.178;6.738;2023-12-20T11:47:30;8.77;;;2.47;;
72517;SDS011;60540;51.178;6.738;2023-12-20T11:49:56;10.63;;;2.50;;
72517;SDS011;60540;51.178;6.738;2023-12-20T11:52:22;6.00;;;2.00;;
72517;SDS011;60540;51.178;6.738;2023-12-20T11:54:48;8.00;;;2.22;;
72517;SDS011;60540;51.178;6.738;2023-12-20T11:57:14;8.60;;;2.70;;
72517;SDS011;60540;51.178;6.738;2023-12-20T11:59:39;5.30;;;2.15;;
72517;SDS011;60540;51.178;6.738;2023-12-20T12:02:05;5.50;;;2.20;;
72517;SDS011;60540;51.178;6.738;2023-12-20T12:04:31;7.93;;;2.60;;
72517;SDS011;60540;51.178;6.738;2023-12-20T12:06:57;7.35;;;2.28;;
72517;SDS011;60540;51.178;6.738;2023-12-20T12:09:22;5.43;;;1.98;;
72517;SDS011;60540;51.178;6.738;2023-12-20T12:11:48;6.40;;;1.88;;
72517;SDS011;60540;51.178;6.738;2023-12-20T12:14:14;8.48;;;3.20;;
72517;SDS011;60540;51.178;6.738;2023-12-20T12:16:41;8.00;;;2.40;;
72517;SDS011;60540;51.178;6.738;2023-12-20T12:19:10;14.40;;;3.58;;
72517;SDS011;60540;51.178;6.738;2023-12-20T12:21:45;8.02;;;2.60;;
72517;SDS011;60540;51.178;6.738;2023-12-20T12:24:11;7.97;;;3.00;;
72517;SDS011;60540;51.178;6.738;2023-12-20T12:26:37;5.97;;;2.55;;
72517;SDS011;60540;51.178;6.738;2023-12-20T12:29:03;6.30;;;2.60;;
72517;SDS011;60540;51.178;6.738;2023-12-20T12:31:29;8.32;;;2.72;;
72517;SDS011;60540;51.178;6.738;2023-12-20T12:33:55;10.63;;;3.67;;
72517;SDS011;60540;51.178;6.738;2023-12-20T12:36:21;6.43;;;2.85;;
72517;SDS011;60540;51.178;6.738;2023-12-20T12:38:47;8.45;;;2.80;;
72517;SDS011;60540;51.178;6.738;2023-12-20T12:41:13;6.07;;;3.00;;
72517;SDS011;60540;51.178;6.738;2023-12-20T12:43:40;11.00;;;2.95;;
72517;SDS011;60540;51.178;6.738;2023-12-20T12:46:06;9.43;;;2.80;;
72517;SDS011;60540;51.178;6.738;2023-12-20T12:48:32;11.73;;;2.88;;
72517;SDS011;60540;51.178;6.738;2023-12-20T12:50:59;7.15;;;2.97;;
72517;SDS011;60540;51.178;6.738;2023-12-20T12:53:25;6.28;;;2.53;;
72517;SDS011;60540;51.178;6.738;2023-12-20T12:55:52;9.63;;;3.05;;
72517;SDS011;60540;51.178;6.738;2023-12-20T12:58:19;7.38;;;2.92;;
72517;SDS011;60540;51.178;6.738;2023-12-20T13:00:44;9.50;;;3.38;;
72517;SDS011;60540;51.178;6.738;2023-12-20T13:03:10;8.30;;;3.10;;
72517;SDS011;60540;51.178;6.738;2023-12-20T13:05:36;8.02;;;3.05;;
72517;SDS011;60540;51.178;6.738;2023-12-20T13:08:01;6.45;;;2.63;;
72517;SDS011;60540;51.178;6.738;2023-12-20T13:10:27;6.88;;;2.78;;
72517;SDS011;60540;51.178;6.738;2023-12-20T13:12:53;7.40;;;2.95;;
72517;SDS011;60540;51.178;6.738;2023-12-20T13:15:19;8.73;;;3.25;;
72517;SDS011;60540;51.178;6.738;2023-12-20T13:17:45;11.57;;;3.05;;
72517;SDS011;60540;51.178;6.738;2023-12-20T13:20:11;5.18;;;2.60;;
72517;SDS011;60540;51.178;6.738;2023-12-20T13:22:37;10.75;;;3.50;;
72517;SDS011;60540;51.178;6.738;2023-12-20T13:25:04;8.57;;;3.22;;
72517;SDS011;60540;51.178;6.738;2023-12-20T13:27:30;8.23;;;3.10;;
72517;SDS011;60540;51.178;6.738;2023-12-20T13:29:56;8.50;;;3.03;;
72517;SDS011;60540;51.178;6.738;2023-12-20T13:32:21;8.30;;;3.25;;
72517;SDS011;60540;51.178;6.738;2023-12-20T13:34:47;10.23;;;3.55;;
72517;SDS011;60540;51.178;6.738;2023-12-20T13:37:13;10.13;;;3.22;;
72517;SDS011;60540;51.178;6.738;2023-12-20T13:39:39;6.97;;;3.35;;
72517;SDS011;60540;51.178;6.738;2023-12-20T13:42:05;10.38;;;3.67;;
72517;SDS011;60540;51.178;6.738;2023-12-20T13:44:30;8.80;;;3.45;;
72517;SDS011;60540;51.178;6.738;2023-12-20T13:46:56;10.25;;;3.67;;
72517;SDS011;60540;51.178;6.738;2023-12-20T13:49:22;8.48;;;3.65;;
72517;SDS011;60540;51.178;6.738;2023-12-20T13:51:51;9.20;;;3.13;;
72517;SDS011;60540;51.178;6.738;2023-12-20T13:54:16;11.90;;;3.25;;
72517;SDS011;60540;51.178;6.738;2023-12-20T13:56:45;12.48;;;3.88;;
72517;SDS011;60540;51.178;6.738;2023-12-20T13:59:12;9.98;;;3.15;;
72517;SDS011;60540;51.178;6.738;2023-12-20T14:01:38;6.45;;;3.08;;
72517;SDS011;60540;51.178;6.738;2023-12-20T14:04:04;11.13;;;3.03;;
72517;SDS011;60540;51.178;6.738;2023-12-20T14:06:30;7.97;;;3.10;;
72517;SDS011;60540;51.178;6.738;2023-12-20T14:08:56;3.90;;;2.25;;
72517;SDS011;60540;51.178;6.738;2023-12-20T14:11:21;7.10;;;2.83;;
72517;SDS011;60540;51.178;6.738;2023-12-20T14:13:47;10.50;;;3.17;;
72517;SDS011;60540;51.178;6.738;2023-12-20T14:16:13;6.70;;;3.05;;
72517;SDS011;60540;51.178;6.738;2023-12-20T14:18:39;6.65;;;2.75;;
72517;SDS011;60540;51.178;6.738;2023-12-20T14:23:32;5.65;;;2.65;;
72517;SDS011;60540;51.178;6.738;2023-12-20T14:25:59;9.13;;;2.95;;
72517;SDS011;60540;51.178;6.738;2023-12-20T14:28:25;8.07;;;2.97;;
72517;SDS011;60540;51.178;6.738;2023-12-20T14:30:51;11.60;;;3.88;;
72517;SDS011;60540;51.178;6.738;2023-12-20T14:33:16;6.55;;;3.10;;
72517;SDS011;60540;51.178;6.738;2023-12-20T14:35:42;12.60;;;4.00;;
72517;SDS011;60540;51.178;6.738;2023-12-20T14:38:09;11.45;;;3.40;;
72517;SDS011;60540;51.178;6.738;2023-12-20T14:40:35;7.07;;;3.40;;
72517;SDS011;60540;51.178;6.738;2023-12-20T14:43:01;10.55;;;3.70;;
72517;SDS011;60540;51.178;6.738;2023-12-20T14:45:29;6.57;;;3.05;;
72517;SDS011;60540;51.178;6.738;2023-12-20T14:47:55;5.70;;;2.80;;
72517;SDS011;60540;51.178;6.738;2023-12-20T14:50:21;7.75;;;2.75;;